首页
METAR-TAF:

METAR-TAF

机场 :

Daniel Field Airport

奥古斯塔, 喬治亞, 美国

纬度: 33-28-01N, 经度: 082-02-19W, 海拔: 128米

当前天气观测

该预报发布于38分钟前的18:53 UTC
风速9节,风向北转东北,有时为17节阵风
温度 8°C
湿度 36%
气压 1031 hPa
能見度: 16.1公里
天空无云

METAR: KDNL 211853Z AUTO 02009G17KT 10SM CLR 08/M06 A3044 RMK AO2 SLP309 T00831056

时间: 14:31 (19:31 UTC)

预报

该预报发布于2小时和10分钟前的17:21 UTC
预报有效从21日的 18点(UTC)到 22日的 18点(UTC)
风速12节,风向北转东北,有时为20节阵风
能見度: 10公里
少量云层高于4000英尺
从 21日的 2100点(UTC)
风速10节,风向
能見度: 10公里
天空无云
从 22日的 0000点(UTC)
风速3节,风向多变
能見度: 10公里
天空无云

TAF: KDNL 211721Z 2118/2218 02012G20KT P6SM FEW040 FM212100 01010KT P6SM SKC FM220000 VRB03KT P6SM SKC

超过4000个机场的气象观测和天气预报(METAR&TAF报告)。

可查询的气象台以黄色和红色小点在地图上表示。

将鼠标移到小点上方,可查看气象台名称。

然后点击查看天气观测和预报。

如需切换地图:点击带黑十字的绿色按钮放大地图;点击带横线的绿色按钮缩小地图;或者点击绿色箭头查看邻近地区的地图。


METAR-TAF: